sensor_id;sensor_type;location;lat;lon;timestamp;P1;durP1;ratioP1;P2;durP2;ratioP2
48367;SDS011;34173;47.446;18.912;2023-03-26T00:01:26;1.02;;;0.50;;
48367;SDS011;34173;47.446;18.912;2023-03-26T00:03:54;1.35;;;0.60;;
48367;SDS011;34173;47.446;18.912;2023-03-26T00:06:25;1.75;;;0.50;;
48367;SDS011;34173;47.446;18.912;2023-03-26T00:08:56;1.37;;;0.50;;
48367;SDS011;34173;47.446;18.912;2023-03-26T00:11:25;1.50;;;0.50;;
48367;SDS011;34173;47.446;18.912;2023-03-26T00:13:54;1.37;;;0.50;;
48367;SDS011;34173;47.446;18.912;2023-03-26T00:16:27;1.02;;;0.50;;
48367;SDS011;34173;47.446;18.912;2023-03-26T00:18:56;1.65;;;0.50;;
48367;SDS011;34173;47.446;18.912;2023-03-26T00:21:27;1.77;;;0.60;;
48367;SDS011;34173;47.446;18.912;2023-03-26T00:23:57;1.45;;;0.50;;
48367;SDS011;34173;47.446;18.912;2023-03-26T00:26:26;1.40;;;0.60;;
48367;SDS011;34173;47.446;18.912;2023-03-26T00:28:56;1.50;;;0.60;;
48367;SDS011;34173;47.446;18.912;2023-03-26T00:31:24;1.05;;;0.50;;
48367;SDS011;34173;47.446;18.912;2023-03-26T00:33:53;1.20;;;0.50;;
48367;SDS011;34173;47.446;18.912;2023-03-26T00:36:22;1.83;;;0.70;;
48367;SDS011;34173;47.446;18.912;2023-03-26T00:38:52;2.10;;;0.55;;
48367;SDS011;34173;47.446;18.912;2023-03-26T00:41:21;1.23;;;0.60;;
48367;SDS011;34173;47.446;18.912;2023-03-26T00:43:53;1.33;;;0.50;;
48367;SDS011;34173;47.446;18.912;2023-03-26T00:46:23;1.67;;;0.50;;
48367;SDS011;34173;47.446;18.912;2023-03-26T00:48:52;1.63;;;0.60;;
48367;SDS011;34173;47.446;18.912;2023-03-26T00:51:19;1.37;;;0.50;;
48367;SDS011;34173;47.446;18.912;2023-03-26T00:53:48;0.95;;;0.52;;
48367;SDS011;34173;47.446;18.912;2023-03-26T00:56:16;2.83;;;0.60;;
48367;SDS011;34173;47.446;18.912;2023-03-26T00:58:44;2.00;;;0.50;;
48367;SDS011;34173;47.446;18.912;2023-03-26T01:01:15;1.00;;;0.50;;
48367;SDS011;34173;47.446;18.912;2023-03-26T01:03:45;0.68;;;0.40;;
48367;SDS011;34173;47.446;18.912;2023-03-26T01:06:34;1.15;;;0.50;;
48367;SDS011;34173;47.446;18.912;2023-03-26T01:09:08;1.20;;;0.60;;
48367;SDS011;34173;47.446;18.912;2023-03-26T01:11:40;1.48;;;0.60;;
48367;SDS011;34173;47.446;18.912;2023-03-26T01:14:09;1.07;;;0.50;;
48367;SDS011;34173;47.446;18.912;2023-03-26T01:17:00;1.17;;;0.43;;
48367;SDS011;34173;47.446;18.912;2023-03-26T01:22:15;1.80;;;0.50;;
48367;SDS011;34173;47.446;18.912;2023-03-26T01:24:47;1.60;;;0.50;;
48367;SDS011;34173;47.446;18.912;2023-03-26T01:41:18;1.77;;;0.68;;
48367;SDS011;34173;47.446;18.912;2023-03-26T01:44:22;1.92;;;0.60;;
48367;SDS011;34173;47.446;18.912;2023-03-26T01:46:55;1.30;;;0.60;;
48367;SDS011;34173;47.446;18.912;2023-03-26T01:49:26;1.58;;;0.68;;
48367;SDS011;34173;47.446;18.912;2023-03-26T01:51:55;1.08;;;0.60;;
48367;SDS011;34173;47.446;18.912;2023-03-26T01:54:25;0.90;;;0.50;;
48367;SDS011;34173;47.446;18.912;2023-03-26T01:57:01;1.20;;;0.60;;
48367;SDS011;34173;47.446;18.912;2023-03-26T02:02:36;2.58;;;0.80;;
48367;SDS011;34173;47.446;18.912;2023-03-26T02:05:15;1.63;;;0.73;;
48367;SDS011;34173;47.446;18.912;2023-03-26T02:07:53;2.50;;;0.68;;
48367;SDS011;34173;47.446;18.912;2023-03-26T02:10:49;1.57;;;0.60;;
48367;SDS011;34173;47.446;18.912;2023-03-26T02:13:20;2.15;;;0.75;;
48367;SDS011;34173;47.446;18.912;2023-03-26T02:15:55;1.60;;;0.70;;
48367;SDS011;34173;47.446;18.912;2023-03-26T02:18:27;3.03;;;0.70;;
48367;SDS011;34173;47.446;18.912;2023-03-26T02:21:06;2.12;;;0.60;;
48367;SDS011;34173;47.446;18.912;2023-03-26T02:23:42;2.20;;;0.60;;
48367;SDS011;34173;47.446;18.912;2023-03-26T02:26:14;1.92;;;0.60;;
48367;SDS011;34173;47.446;18.912;2023-03-26T02:28:45;2.03;;;0.55;;
48367;SDS011;34173;47.446;18.912;2023-03-26T02:31:13;1.77;;;0.50;;
48367;SDS011;34173;47.446;18.912;2023-03-26T02:33:43;1.77;;;0.60;;
48367;SDS011;34173;47.446;18.912;2023-03-26T02:36:14;1.83;;;0.70;;
48367;SDS011;34173;47.446;18.912;2023-03-26T02:38:45;1.95;;;0.60;;
48367;SDS011;34173;47.446;18.912;2023-03-26T02:41:13;2.33;;;0.55;;
48367;SDS011;34173;47.446;18.912;2023-03-26T02:43:48;1.42;;;0.68;;
48367;SDS011;34173;47.446;18.912;2023-03-26T02:46:18;1.50;;;0.70;;
48367;SDS011;34173;47.446;18.912;2023-03-26T02:48:47;2.45;;;0.60;;
48367;SDS011;34173;47.446;18.912;2023-03-26T02:51:16;1.83;;;0.70;;
48367;SDS011;34173;47.446;18.912;2023-03-26T02:53:45;2.60;;;0.70;;
48367;SDS011;34173;47.446;18.912;2023-03-26T02:56:14;1.98;;;0.70;;
48367;SDS011;34173;47.446;18.912;2023-03-26T02:58:43;1.92;;;0.60;;
48367;SDS011;34173;47.446;18.912;2023-03-26T03:01:12;1.45;;;0.60;;
48367;SDS011;34173;47.446;18.912;2023-03-26T03:03:39;2.10;;;0.75;;
48367;SDS011;34173;47.446;18.912;2023-03-26T03:06:13;3.15;;;0.77;;
48367;SDS011;34173;47.446;18.912;2023-03-26T03:08:44;2.73;;;0.80;;
48367;SDS011;34173;47.446;18.912;2023-03-26T03:11:17;3.10;;;0.80;;
48367;SDS011;34173;47.446;18.912;2023-03-26T03:13:49;1.50;;;0.63;;
48367;SDS011;34173;47.446;18.912;2023-03-26T03:16:18;2.72;;;0.70;;
48367;SDS011;34173;47.446;18.912;2023-03-26T03:18:46;2.67;;;0.87;;
48367;SDS011;34173;47.446;18.912;2023-03-26T03:21:22;1.85;;;0.70;;
48367;SDS011;34173;47.446;18.912;2023-03-26T03:23:50;2.20;;;0.80;;
48367;SDS011;34173;47.446;18.912;2023-03-26T03:26:18;2.08;;;0.60;;
48367;SDS011;34173;47.446;18.912;2023-03-26T03:28:49;1.00;;;0.50;;
48367;SDS011;34173;47.446;18.912;2023-03-26T03:31:17;1.75;;;0.60;;
48367;SDS011;34173;47.446;18.912;2023-03-26T03:33:45;1.98;;;0.80;;
48367;SDS011;34173;47.446;18.912;2023-03-26T03:36:13;3.22;;;0.60;;
48367;SDS011;34173;47.446;18.912;2023-03-26T03:38:49;2.42;;;0.80;;
48367;SDS011;34173;47.446;18.912;2023-03-26T03:41:17;2.07;;;0.70;;
48367;SDS011;34173;47.446;18.912;2023-03-26T03:43:46;2.62;;;1.02;;
48367;SDS011;34173;47.446;18.912;2023-03-26T03:46:14;2.20;;;0.80;;
48367;SDS011;34173;47.446;18.912;2023-03-26T03:48:42;2.20;;;0.80;;
48367;SDS011;34173;47.446;18.912;2023-03-26T03:51:15;1.90;;;0.68;;
48367;SDS011;34173;47.446;18.912;2023-03-26T03:53:44;1.85;;;0.70;;
48367;SDS011;34173;47.446;18.912;2023-03-26T03:56:13;2.05;;;0.70;;
48367;SDS011;34173;47.446;18.912;2023-03-26T03:58:45;1.90;;;0.90;;
48367;SDS011;34173;47.446;18.912;2023-03-26T04:01:14;2.30;;;0.82;;
48367;SDS011;34173;47.446;18.912;2023-03-26T04:03:44;1.60;;;0.60;;
48367;SDS011;34173;47.446;18.912;2023-03-26T04:06:13;2.70;;;0.70;;
48367;SDS011;34173;47.446;18.912;2023-03-26T04:08:52;2.03;;;0.80;;
48367;SDS011;34173;47.446;18.912;2023-03-26T04:11:20;2.20;;;0.85;;
48367;SDS011;34173;47.446;18.912;2023-03-26T04:13:49;3.17;;;0.80;;
48367;SDS011;34173;47.446;18.912;2023-03-26T04:16:18;2.20;;;0.80;;
48367;SDS011;34173;47.446;18.912;2023-03-26T04:18:47;4.12;;;0.82;;
48367;SDS011;34173;47.446;18.912;2023-03-26T04:21:15;4.07;;;1.15;;
48367;SDS011;34173;47.446;18.912;2023-03-26T04:23:43;3.70;;;1.10;;
48367;SDS011;34173;47.446;18.912;2023-03-26T04:26:14;3.05;;;1.20;;
48367;SDS011;34173;47.446;18.912;2023-03-26T04:28:46;2.92;;;1.20;;
48367;SDS011;34173;47.446;18.912;2023-03-26T04:31:16;3.45;;;1.20;;
48367;SDS011;34173;47.446;18.912;2023-03-26T04:33:45;2.90;;;1.40;;
48367;SDS011;34173;47.446;18.912;2023-03-26T04:36:14;2.90;;;1.35;;
48367;SDS011;34173;47.446;18.912;2023-03-26T04:38:44;5.80;;;2.00;;
48367;SDS011;34173;47.446;18.912;2023-03-26T04:41:13;5.57;;;2.17;;
48367;SDS011;34173;47.446;18.912;2023-03-26T04:43:41;5.53;;;1.98;;
48367;SDS011;34173;47.446;18.912;2023-03-26T04:46:13;7.32;;;2.72;;
48367;SDS011;34173;47.446;18.912;2023-03-26T04:48:49;7.90;;;3.92;;
48367;SDS011;34173;47.446;18.912;2023-03-26T04:51:18;9.50;;;5.03;;
48367;SDS011;34173;47.446;18.912;2023-03-26T04:53:52;10.60;;;3.45;;
48367;SDS011;34173;47.446;18.912;2023-03-26T04:59:02;7.72;;;3.50;;
48367;SDS011;34173;47.446;18.912;2023-03-26T05:01:31;5.50;;;2.30;;
48367;SDS011;34173;47.446;18.912;2023-03-26T05:03:59;5.10;;;2.12;;
48367;SDS011;34173;47.446;18.912;2023-03-26T05:06:27;4.53;;;2.47;;
48367;SDS011;34173;47.446;18.912;2023-03-26T05:08:57;5.63;;;2.20;;
48367;SDS011;34173;47.446;18.912;2023-03-26T05:11:27;4.97;;;2.60;;
48367;SDS011;34173;47.446;18.912;2023-03-26T05:13:55;6.18;;;2.40;;
48367;SDS011;34173;47.446;18.912;2023-03-26T05:16:23;5.93;;;2.37;;
48367;SDS011;34173;47.446;18.912;2023-03-26T05:18:51;5.07;;;2.30;;
48367;SDS011;34173;47.446;18.912;2023-03-26T05:21:20;4.30;;;1.85;;
48367;SDS011;34173;47.446;18.912;2023-03-26T05:23:48;4.45;;;1.20;;
48367;SDS011;34173;47.446;18.912;2023-03-26T05:26:16;5.37;;;1.60;;
48367;SDS011;34173;47.446;18.912;2023-03-26T05:28:44;4.40;;;1.83;;
48367;SDS011;34173;47.446;18.912;2023-03-26T05:31:12;5.72;;;2.40;;
48367;SDS011;34173;47.446;18.912;2023-03-26T05:33:45;7.15;;;2.83;;
48367;SDS011;34173;47.446;18.912;2023-03-26T05:36:14;5.97;;;2.90;;
48367;SDS011;34173;47.446;18.912;2023-03-26T05:38:43;10.52;;;4.50;;
48367;SDS011;34173;47.446;18.912;2023-03-26T05:41:16;51.83;;;19.40;;
48367;SDS011;34173;47.446;18.912;2023-03-26T05:43:44;67.32;;;28.23;;
48367;SDS011;34173;47.446;18.912;2023-03-26T05:46:13;83.45;;;37.20;;
48367;SDS011;34173;47.446;18.912;2023-03-26T05:48:42;46.88;;;22.83;;
48367;SDS011;34173;47.446;18.912;2023-03-26T05:51:09;19.67;;;12.20;;
48367;SDS011;34173;47.446;18.912;2023-03-26T05:53:40;13.60;;;7.97;;
48367;SDS011;34173;47.446;18.912;2023-03-26T05:56:09;27.10;;;14.10;;
48367;SDS011;34173;47.446;18.912;2023-03-26T05:58:43;19.80;;;11.07;;
48367;SDS011;34173;47.446;18.912;2023-03-26T06:01:19;26.85;;;11.68;;
48367;SDS011;34173;47.446;18.912;2023-03-26T06:03:50;21.83;;;10.85;;
48367;SDS011;34173;47.446;18.912;2023-03-26T06:06:18;17.33;;;10.73;;
48367;SDS011;34173;47.446;18.912;2023-03-26T06:08:48;19.23;;;10.88;;
48367;SDS011;34173;47.446;18.912;2023-03-26T06:11:29;11.63;;;5.40;;
48367;SDS011;34173;47.446;18.912;2023-03-26T06:13:59;8.75;;;3.47;;
48367;SDS011;34173;47.446;18.912;2023-03-26T06:16:27;7.70;;;2.83;;
48367;SDS011;34173;47.446;18.912;2023-03-26T06:18:55;7.53;;;3.05;;
48367;SDS011;34173;47.446;18.912;2023-03-26T06:21:25;7.93;;;2.90;;
48367;SDS011;34173;47.446;18.912;2023-03-26T06:23:54;5.97;;;2.80;;
48367;SDS011;34173;47.446;18.912;2023-03-26T06:26:25;5.95;;;2.12;;
48367;SDS011;34173;47.446;18.912;2023-03-26T06:28:52;5.50;;;2.30;;
48367;SDS011;34173;47.446;18.912;2023-03-26T06:31:20;4.85;;;1.80;;
48367;SDS011;34173;47.446;18.912;2023-03-26T06:33:48;5.18;;;1.70;;
48367;SDS011;34173;47.446;18.912;2023-03-26T06:36:16;4.10;;;1.40;;
48367;SDS011;34173;47.446;18.912;2023-03-26T06:38:47;4.55;;;1.40;;
48367;SDS011;34173;47.446;18.912;2023-03-26T06:41:15;3.40;;;1.30;;
48367;SDS011;34173;47.446;18.912;2023-03-26T06:43:43;3.30;;;1.05;;
48367;SDS011;34173;47.446;18.912;2023-03-26T06:46:11;4.55;;;1.20;;
48367;SDS011;34173;47.446;18.912;2023-03-26T06:48:42;3.80;;;1.10;;
48367;SDS011;34173;47.446;18.912;2023-03-26T06:51:11;5.53;;;1.17;;
48367;SDS011;34173;47.446;18.912;2023-03-26T06:53:40;4.03;;;1.10;;
48367;SDS011;34173;47.446;18.912;2023-03-26T06:56:08;4.03;;;1.30;;
48367;SDS011;34173;47.446;18.912;2023-03-26T06:58:36;5.07;;;1.15;;
48367;SDS011;34173;47.446;18.912;2023-03-26T07:01:16;2.92;;;0.90;;
48367;SDS011;34173;47.446;18.912;2023-03-26T07:03:57;5.40;;;1.12;;
48367;SDS011;34173;47.446;18.912;2023-03-26T07:06:52;5.53;;;1.30;;
48367;SDS011;34173;47.446;18.912;2023-03-26T07:09:27;3.12;;;0.85;;
48367;SDS011;34173;47.446;18.912;2023-03-26T07:11:59;4.10;;;0.93;;
48367;SDS011;34173;47.446;18.912;2023-03-26T07:14:28;3.22;;;0.80;;
48367;SDS011;34173;47.446;18.912;2023-03-26T07:16:59;4.15;;;1.30;;
48367;SDS011;34173;47.446;18.912;2023-03-26T07:19:27;6.53;;;1.20;;
48367;SDS011;34173;47.446;18.912;2023-03-26T07:21:55;3.53;;;1.20;;
48367;SDS011;34173;47.446;18.912;2023-03-26T07:24:24;5.18;;;1.30;;
48367;SDS011;34173;47.446;18.912;2023-03-26T07:34:54;4.80;;;1.20;;
48367;SDS011;34173;47.446;18.912;2023-03-26T07:43:27;3.03;;;1.02;;
48367;SDS011;34173;47.446;18.912;2023-03-26T07:46:07;3.10;;;1.20;;
48367;SDS011;34173;47.446;18.912;2023-03-26T07:48:56;2.85;;;1.02;;
48367;SDS011;34173;47.446;18.912;2023-03-26T07:51:27;4.32;;;1.10;;
48367;SDS011;34173;47.446;18.912;2023-03-26T07:53:55;4.15;;;1.25;;
48367;SDS011;34173;47.446;18.912;2023-03-26T08:02:03;3.30;;;1.20;;
48367;SDS011;34173;47.446;18.912;2023-03-26T08:04:42;5.20;;;1.43;;
48367;SDS011;34173;47.446;18.912;2023-03-26T08:10:10;4.07;;;1.08;;
48367;SDS011;34173;47.446;18.912;2023-03-26T08:12:51;4.57;;;1.30;;
48367;SDS011;34173;47.446;18.912;2023-03-26T08:15:31;4.20;;;1.20;;
48367;SDS011;34173;47.446;18.912;2023-03-26T08:23:59;2.37;;;1.00;;
48367;SDS011;34173;47.446;18.912;2023-03-26T08:26:34;2.55;;;0.80;;
48367;SDS011;34173;47.446;18.912;2023-03-26T08:31:48;3.30;;;1.10;;
48367;SDS011;34173;47.446;18.912;2023-03-26T08:34:17;2.67;;;1.00;;
48367;SDS011;34173;47.446;18.912;2023-03-26T08:36:44;3.60;;;0.90;;
48367;SDS011;34173;47.446;18.912;2023-03-26T08:39:12;3.78;;;0.90;;
48367;SDS011;34173;47.446;18.912;2023-03-26T09:37:21;2.15;;;0.90;;
48367;SDS011;34173;47.446;18.912;2023-03-26T09:54:41;2.65;;;1.10;;
48367;SDS011;34173;47.446;18.912;2023-03-26T10:00:16;2.85;;;1.23;;
48367;SDS011;34173;47.446;18.912;2023-03-26T10:08:48;2.78;;;0.96;;
48367;SDS011;34173;47.446;18.912;2023-03-26T10:14:25;4.15;;;0.90;;
48367;SDS011;34173;47.446;18.912;2023-03-26T10:22:52;6.80;;;1.35;;
48367;SDS011;34173;47.446;18.912;2023-03-26T10:31:12;6.03;;;1.60;;
48367;SDS011;34173;47.446;18.912;2023-03-26T10:56:48;4.95;;;0.80;;
48367;SDS011;34173;47.446;18.912;2023-03-26T10:58:54;3.42;;;0.88;;
48367;SDS011;34173;47.446;18.912;2023-03-26T11:01:30;4.37;;;0.80;;
48367;SDS011;34173;47.446;18.912;2023-03-26T11:04:11;2.17;;;0.80;;
48367;SDS011;34173;47.446;18.912;2023-03-26T11:12:41;3.50;;;1.20;;
48367;SDS011;34173;47.446;18.912;2023-03-26T11:15:32;3.75;;;1.30;;
48367;SDS011;34173;47.446;18.912;2023-03-26T11:32:21;5.97;;;1.20;;
48367;SDS011;34173;47.446;18.912;2023-03-26T11:37:28;2.20;;;0.70;;
48367;SDS011;34173;47.446;18.912;2023-03-26T11:39:58;1.45;;;0.68;;
48367;SDS011;34173;47.446;18.912;2023-03-26T11:42:28;3.22;;;1.00;;
48367;SDS011;34173;47.446;18.912;2023-03-26T11:45:04;4.03;;;1.20;;
48367;SDS011;34173;47.446;18.912;2023-03-26T11:47:44;2.60;;;1.20;;
48367;SDS011;34173;47.446;18.912;2023-03-26T11:50:22;3.08;;;1.10;;
48367;SDS011;34173;47.446;18.912;2023-03-26T11:52:57;2.03;;;0.82;;
48367;SDS011;34173;47.446;18.912;2023-03-26T11:55:25;3.00;;;0.80;;
48367;SDS011;34173;47.446;18.912;2023-03-26T11:57:54;2.40;;;0.80;;
48367;SDS011;34173;47.446;18.912;2023-03-26T12:00:24;2.03;;;0.70;;
48367;SDS011;34173;47.446;18.912;2023-03-26T12:02:57;2.37;;;0.80;;
48367;SDS011;34173;47.446;18.912;2023-03-26T12:05:27;1.70;;;0.70;;
48367;SDS011;34173;47.446;18.912;2023-03-26T12:08:01;2.72;;;0.82;;
48367;SDS011;34173;47.446;18.912;2023-03-26T12:10:37;1.50;;;0.60;;
48367;SDS011;34173;47.446;18.912;2023-03-26T12:16:14;0.85;;;0.45;;
48367;SDS011;34173;47.446;18.912;2023-03-26T12:18:44;2.37;;;0.52;;
48367;SDS011;34173;47.446;18.912;2023-03-26T12:21:16;1.65;;;0.55;;
48367;SDS011;34173;47.446;18.912;2023-03-26T12:23:59;2.97;;;0.60;;
48367;SDS011;34173;47.446;18.912;2023-03-26T12:26:37;0.95;;;0.30;;
48367;SDS011;34173;47.446;18.912;2023-03-26T12:29:08;1.23;;;0.40;;
48367;SDS011;34173;47.446;18.912;2023-03-26T12:34:22;2.10;;;0.40;;
48367;SDS011;34173;47.446;18.912;2023-03-26T12:36:55;1.00;;;0.30;;
48367;SDS011;34173;47.446;18.912;2023-03-26T12:42:24;0.73;;;0.40;;
48367;SDS011;34173;47.446;18.912;2023-03-26T12:45:20;0.55;;;0.35;;
48367;SDS011;34173;47.446;18.912;2023-03-26T12:47:50;0.80;;;0.30;;
48367;SDS011;34173;47.446;18.912;2023-03-26T12:56:19;1.77;;;0.65;;
48367;SDS011;34173;47.446;18.912;2023-03-26T13:12:47;3.08;;;1.04;;
48367;SDS011;34173;47.446;18.912;2023-03-26T13:15:21;3.97;;;2.30;;
48367;SDS011;34173;47.446;18.912;2023-03-26T13:18:40;1.42;;;0.60;;
48367;SDS011;34173;47.446;18.912;2023-03-26T13:20:53;5.04;;;2.20;;
48367;SDS011;34173;47.446;18.912;2023-03-26T13:34:25;3.75;;;0.80;;
48367;SDS011;34173;47.446;18.912;2023-03-26T13:45:51;3.62;;;0.80;;
48367;SDS011;34173;47.446;18.912;2023-03-26T13:48:24;1.60;;;0.60;;
48367;SDS011;34173;47.446;18.912;2023-03-26T13:50:56;1.70;;;0.40;;
48367;SDS011;34173;47.446;18.912;2023-03-26T13:54:30;0.90;;;0.35;;
48367;SDS011;34173;47.446;18.912;2023-03-26T13:56:49;2.12;;;0.50;;
48367;SDS011;34173;47.446;18.912;2023-03-26T13:59:29;1.75;;;0.50;;
48367;SDS011;34173;47.446;18.912;2023-03-26T14:02:02;1.30;;;0.47;;
48367;SDS011;34173;47.446;18.912;2023-03-26T14:04:48;6.70;;;1.60;;
48367;SDS011;34173;47.446;18.912;2023-03-26T14:07:24;7.22;;;2.92;;
48367;SDS011;34173;47.446;18.912;2023-03-26T14:15:23;1.43;;;0.40;;
48367;SDS011;34173;47.446;18.912;2023-03-26T14:18:11;1.17;;;0.30;;
48367;SDS011;34173;47.446;18.912;2023-03-26T14:26:39;1.27;;;0.33;;
48367;SDS011;34173;47.446;18.912;2023-03-26T14:32:15;2.20;;;0.40;;
48367;SDS011;34173;47.446;18.912;2023-03-26T14:37:32;1.00;;;0.40;;
48367;SDS011;34173;47.446;18.912;2023-03-26T14:54:06;1.13;;;0.50;;
48367;SDS011;34173;47.446;18.912;2023-03-26T14:56:45;2.15;;;0.62;;
48367;SDS011;34173;47.446;18.912;2023-03-26T15:33:07;1.33;;;0.60;;
48367;SDS011;34173;47.446;18.912;2023-03-26T15:41:57;1.08;;;0.40;;
48367;SDS011;34173;47.446;18.912;2023-03-26T15:44:33;2.78;;;0.93;;
48367;SDS011;34173;47.446;18.912;2023-03-26T15:50:21;1.62;;;0.43;;
48367;SDS011;34173;47.446;18.912;2023-03-26T16:07:06;2.30;;;0.70;;
48367;SDS011;34173;47.446;18.912;2023-03-26T16:10:12;2.05;;;0.60;;
48367;SDS011;34173;47.446;18.912;2023-03-26T16:15:25;1.95;;;0.70;;
48367;SDS011;34173;47.446;18.912;2023-03-26T16:20:49;2.70;;;0.90;;
48367;SDS011;34173;47.446;18.912;2023-03-26T16:26:18;2.28;;;0.90;;
48367;SDS011;34173;47.446;18.912;2023-03-26T16:29:13;2.55;;;1.00;;
48367;SDS011;34173;47.446;18.912;2023-03-26T16:48:39;5.60;;;2.10;;
48367;SDS011;34173;47.446;18.912;2023-03-26T16:51:25;5.03;;;2.12;;
48367;SDS011;34173;47.446;18.912;2023-03-26T16:54:21;5.35;;;2.30;;
48367;SDS011;34173;47.446;18.912;2023-03-26T17:02:02;4.57;;;1.98;;
48367;SDS011;34173;47.446;18.912;2023-03-26T17:04:42;3.80;;;1.70;;
48367;SDS011;34173;47.446;18.912;2023-03-26T17:07:18;4.67;;;1.47;;
48367;SDS011;34173;47.446;18.912;2023-03-26T17:29:59;5.30;;;2.47;;
48367;SDS011;34173;47.446;18.912;2023-03-26T17:35:36;5.65;;;2.25;;
48367;SDS011;34173;47.446;18.912;2023-03-26T17:41:02;5.90;;;2.87;;
48367;SDS011;34173;47.446;18.912;2023-03-26T17:49:13;6.90;;;3.00;;
48367;SDS011;34173;47.446;18.912;2023-03-26T17:51:51;10.18;;;4.30;;
48367;SDS011;34173;47.446;18.912;2023-03-26T17:57:04;7.62;;;3.85;;
48367;SDS011;34173;47.446;18.912;2023-03-26T17:59:37;7.93;;;3.30;;
48367;SDS011;34173;47.446;18.912;2023-03-26T18:02:12;5.62;;;2.67;;
48367;SDS011;34173;47.446;18.912;2023-03-26T18:04:46;5.40;;;2.10;;
48367;SDS011;34173;47.446;18.912;2023-03-26T18:07:33;4.81;;;2.03;;
48367;SDS011;34173;47.446;18.912;2023-03-26T18:10:13;6.20;;;2.20;;
48367;SDS011;34173;47.446;18.912;2023-03-26T18:13:01;4.25;;;2.05;;
48367;SDS011;34173;47.446;18.912;2023-03-26T18:18:28;6.74;;;2.34;;
48367;SDS011;34173;47.446;18.912;2023-03-26T18:21:00;7.50;;;2.45;;
48367;SDS011;34173;47.446;18.912;2023-03-26T18:23:35;7.20;;;2.70;;
48367;SDS011;34173;47.446;18.912;2023-03-26T18:26:20;6.55;;;2.70;;
48367;SDS011;34173;47.446;18.912;2023-03-26T18:32:17;6.75;;;3.05;;
48367;SDS011;34173;47.446;18.912;2023-03-26T18:34:58;5.85;;;2.60;;
48367;SDS011;34173;47.446;18.912;2023-03-26T18:37:30;6.28;;;3.10;;
48367;SDS011;34173;47.446;18.912;2023-03-26T18:40:06;7.40;;;4.30;;
48367;SDS011;34173;47.446;18.912;2023-03-26T18:42:52;11.68;;;6.60;;
48367;SDS011;34173;47.446;18.912;2023-03-26T18:45:27;16.33;;;9.90;;
48367;SDS011;34173;47.446;18.912;2023-03-26T18:48:10;9.48;;;4.68;;
48367;SDS011;34173;47.446;18.912;2023-03-26T18:50:46;9.40;;;5.10;;
48367;SDS011;34173;47.446;18.912;2023-03-26T18:53:22;10.25;;;5.50;;
48367;SDS011;34173;47.446;18.912;2023-03-26T18:55:53;10.65;;;5.78;;
48367;SDS011;34173;47.446;18.912;2023-03-26T18:58:36;9.20;;;4.43;;
48367;SDS011;34173;47.446;18.912;2023-03-26T19:01:13;11.88;;;6.43;;
48367;SDS011;34173;47.446;18.912;2023-03-26T19:03:53;11.75;;;6.90;;
48367;SDS011;34173;47.446;18.912;2023-03-26T19:06:22;10.32;;;5.40;;
48367;SDS011;34173;47.446;18.912;2023-03-26T19:08:53;9.09;;;5.13;;
48367;SDS011;34173;47.446;18.912;2023-03-26T19:11:29;9.60;;;5.43;;
48367;SDS011;34173;47.446;18.912;2023-03-26T19:14:16;8.80;;;5.80;;
48367;SDS011;34173;47.446;18.912;2023-03-26T19:16:59;11.25;;;5.85;;
48367;SDS011;34173;47.446;18.912;2023-03-26T19:19:35;10.30;;;5.70;;
48367;SDS011;34173;47.446;18.912;2023-03-26T19:22:04;8.70;;;5.50;;
48367;SDS011;34173;47.446;18.912;2023-03-26T19:24:37;9.17;;;5.33;;
48367;SDS011;34173;47.446;18.912;2023-03-26T19:27:08;10.13;;;5.70;;
48367;SDS011;34173;47.446;18.912;2023-03-26T19:29:38;10.60;;;6.19;;
48367;SDS011;34173;47.446;18.912;2023-03-26T19:32:22;29.77;;;26.55;;
48367;SDS011;34173;47.446;18.912;2023-03-26T19:35:00;24.85;;;21.40;;
48367;SDS011;34173;47.446;18.912;2023-03-26T19:37:31;18.42;;;14.45;;
48367;SDS011;34173;47.446;18.912;2023-03-26T19:40:13;22.35;;;18.75;;
48367;SDS011;34173;47.446;18.912;2023-03-26T19:42:49;11.32;;;7.35;;
48367;SDS011;34173;47.446;18.912;2023-03-26T19:45:20;9.29;;;5.84;;
48367;SDS011;34173;47.446;18.912;2023-03-26T19:47:50;14.27;;;8.30;;
48367;SDS011;34173;47.446;18.912;2023-03-26T19:50:34;15.97;;;9.10;;
48367;SDS011;34173;47.446;18.912;2023-03-26T19:55:54;12.03;;;7.30;;
48367;SDS011;34173;47.446;18.912;2023-03-26T19:58:27;11.95;;;6.97;;
48367;SDS011;34173;47.446;18.912;2023-03-26T20:00:57;13.95;;;7.30;;
48367;SDS011;34173;47.446;18.912;2023-03-26T20:03:41;18.00;;;11.45;;
48367;SDS011;34173;47.446;18.912;2023-03-26T20:06:10;12.98;;;7.15;;
48367;SDS011;34173;47.446;18.912;2023-03-26T20:08:41;11.95;;;7.32;;
48367;SDS011;34173;47.446;18.912;2023-03-26T20:11:15;12.75;;;6.68;;
48367;SDS011;34173;47.446;18.912;2023-03-26T20:13:49;11.95;;;5.90;;
48367;SDS011;34173;47.446;18.912;2023-03-26T20:18:59;10.25;;;5.22;;
48367;SDS011;34173;47.446;18.912;2023-03-26T20:21:31;11.02;;;5.43;;
48367;SDS011;34173;47.446;18.912;2023-03-26T20:24:12;9.65;;;6.30;;
48367;SDS011;34173;47.446;18.912;2023-03-26T20:26:43;11.88;;;6.10;;
48367;SDS011;34173;47.446;18.912;2023-03-26T20:29:12;10.10;;;5.80;;
48367;SDS011;34173;47.446;18.912;2023-03-26T20:31:41;10.55;;;5.45;;
48367;SDS011;34173;47.446;18.912;2023-03-26T20:34:18;11.95;;;5.75;;
48367;SDS011;34173;47.446;18.912;2023-03-26T20:36:49;11.55;;;5.53;;
48367;SDS011;34173;47.446;18.912;2023-03-26T20:39:28;9.00;;;5.40;;
48367;SDS011;34173;47.446;18.912;2023-03-26T20:41:56;8.85;;;5.45;;
48367;SDS011;34173;47.446;18.912;2023-03-26T20:44:24;13.27;;;8.88;;
48367;SDS011;34173;47.446;18.912;2023-03-26T20:46:54;13.57;;;8.50;;
48367;SDS011;34173;47.446;18.912;2023-03-26T20:49:23;12.15;;;8.32;;
48367;SDS011;34173;47.446;18.912;2023-03-26T20:51:55;15.68;;;12.02;;
48367;SDS011;34173;47.446;18.912;2023-03-26T20:54:24;12.52;;;8.25;;
48367;SDS011;34173;47.446;18.912;2023-03-26T20:56:52;8.80;;;6.00;;
48367;SDS011;34173;47.446;18.912;2023-03-26T20:59:21;10.02;;;5.37;;
48367;SDS011;34173;47.446;18.912;2023-03-26T21:01:53;8.88;;;5.16;;
48367;SDS011;34173;47.446;18.912;2023-03-26T21:04:24;9.58;;;5.54;;
48367;SDS011;34173;47.446;18.912;2023-03-26T21:06:52;14.98;;;11.57;;
48367;SDS011;34173;47.446;18.912;2023-03-26T21:09:30;9.55;;;5.10;;
48367;SDS011;34173;47.446;18.912;2023-03-26T21:12:04;10.15;;;5.53;;
48367;SDS011;34173;47.446;18.912;2023-03-26T21:14:36;10.65;;;6.05;;
48367;SDS011;34173;47.446;18.912;2023-03-26T21:17:17;10.98;;;6.40;;
48367;SDS011;34173;47.446;18.912;2023-03-26T21:19:47;8.05;;;4.05;;
48367;SDS011;34173;47.446;18.912;2023-03-26T21:25:14;6.50;;;2.90;;
48367;SDS011;34173;47.446;18.912;2023-03-26T21:30:37;5.22;;;2.70;;
48367;SDS011;34173;47.446;18.912;2023-03-26T21:33:06;7.60;;;2.43;;
48367;SDS011;34173;47.446;18.912;2023-03-26T21:35:33;6.37;;;2.40;;
48367;SDS011;34173;47.446;18.912;2023-03-26T21:38:02;5.47;;;2.33;;
48367;SDS011;34173;47.446;18.912;2023-03-26T21:40:30;5.87;;;2.40;;
48367;SDS011;34173;47.446;18.912;2023-03-26T21:42:59;5.37;;;2.45;;
48367;SDS011;34173;47.446;18.912;2023-03-26T21:45:27;5.12;;;2.55;;
48367;SDS011;34173;47.446;18.912;2023-03-26T21:47:55;5.78;;;2.60;;
48367;SDS011;34173;47.446;18.912;2023-03-26T21:50:22;5.25;;;2.40;;
48367;SDS011;34173;47.446;18.912;2023-03-26T21:52:51;5.32;;;2.40;;
48367;SDS011;34173;47.446;18.912;2023-03-26T21:55:20;3.97;;;1.40;;
48367;SDS011;34173;47.446;18.912;2023-03-26T21:57:52;3.53;;;1.50;;